Time;durP1;ratioP1;P1;durP2;ratioP2;P2;SDS_P1;SDS_P2;PMS_P1;PMS_P2;Temp;Humidity;BMP_temperature;BMP_pressure;BME280_temperature;BME280_humidity;BME280_pressure;Samples;Min_cycle;Max_cycle;Signal;HPM_P1;HPM_P2
2022/11/11 00:02:11;;;;;;;;;;;16.60;75.40;;;;;;5046220;28;20048;-86
2022/11/11 00:05:15;;;;;;;2.35;0.95;;;16.60;75.50;;;;;;5037645;28;20398;-86
2022/11/11 00:08:19;;;;;;;2.47;1.08;;;16.60;75.40;;;;;;5040909;28;20044;-87
2022/11/11 00:11:22;;;;;;;3.50;1.88;;;16.60;75.40;;;;;;5037996;28;20036;-86
2022/11/11 00:14:25;;;;;;;;;;;16.60;75.50;;;;;;5038822;28;20075;-86
2022/11/11 00:27:49;;;;;;;3.20;1.25;;;16.60;75.50;;;;;;5044653;28;20082;-89
2022/11/11 00:31:01;;;;;;;3.83;1.35;;;16.60;75.50;;;;;;5040018;28;20048;-88
2022/11/11 00:34:04;;;;;;;2.45;1.20;;;16.60;75.60;;;;;;5044375;28;20518;-86
2022/11/11 00:37:07;;;;;;;3.53;1.17;;;16.60;75.60;;;;;;5038140;28;20163;-85
2022/11/11 00:40:12;;;;;;;2.88;1.08;;;16.60;75.60;;;;;;5043070;28;20043;-86
2022/11/11 00:43:15;;;;;;;2.80;1.20;;;16.60;75.60;;;;;;5044969;28;20056;-86
2022/11/11 00:53:22;;;;;;;5.00;1.55;;;16.60;75.70;;;;;;5026808;28;20039;-88
2022/11/11 00:56:26;;;;;;;2.43;1.10;;;16.50;75.50;;;;;;5036484;28;20125;-87
2022/11/11 00:59:30;;;;;;;5.15;1.10;;;16.50;75.50;;;;;;5033736;28;20358;-88
2022/11/11 01:02:33;;;;;;;3.28;1.00;;;16.50;75.60;;;;;;5034461;28;20052;-87
2022/11/11 01:05:37;;;;;;;4.13;1.02;;;16.60;75.70;;;;;;5031023;28;20388;-87
2022/11/11 01:08:41;;;;;;;2.78;1.50;;;16.50;75.60;;;;;;5042582;28;20060;-87
2022/11/11 01:11:44;;;;;;;2.80;1.30;;;16.60;75.70;;;;;;5044693;28;20052;-86
2022/11/11 01:14:48;;;;;;;3.45;1.33;;;16.50;75.50;;;;;;5043896;28;20554;-88
2022/11/11 01:17:51;;;;;;;;;;;16.50;75.50;;;;;;5044840;28;20043;-87
2022/11/11 01:21:03;;;;;;;4.60;1.37;;;16.50;75.50;;;;;;5041285;28;20382;-85
2022/11/11 01:24:06;;;;;;;2.20;1.20;;;16.50;75.50;;;;;;5043548;28;20044;-86
2022/11/11 01:27:10;;;;;;;2.17;1.08;;;16.50;75.50;;;;;;5044114;28;20104;-87
2022/11/11 01:30:13;;;;;;;3.30;1.10;;;16.50;75.50;;;;;;5047900;28;20951;-89
2022/11/11 01:33:16;;;;;;;4.65;1.50;;;16.50;75.50;;;;;;5038622;28;20040;-87
2022/11/11 01:36:22;;;;;;;4.25;1.27;;;16.50;75.50;;;;;;5043418;28;20095;-87
2022/11/11 01:39:26;;;;;;;3.83;0.98;;;16.60;75.70;;;;;;5039096;28;20108;-85
2022/11/11 01:42:29;;;;;;;3.33;1.15;;;16.50;75.50;;;;;;5034568;28;20102;-84
2022/11/11 01:45:46;;;;;;;;;;;16.50;75.50;;;;;;5043978;28;20118;-85
2022/11/11 01:52:30;;;;;;;4.20;1.35;;;16.50;75.50;;;;;;5042650;28;20063;-84
2022/11/11 01:55:33;;;;;;;3.83;1.35;;;16.50;75.50;;;;;;5046940;28;20759;-85
2022/11/11 01:58:36;;;;;;;4.95;1.35;;;16.50;75.50;;;;;;5046822;28;20046;-83
2022/11/11 02:01:40;;;;;;;2.38;1.05;;;16.50;75.60;;;;;;5046739;28;20395;-86
2022/11/11 02:08:32;;;;;;;2.90;1.00;;;16.50;75.70;;;;;;5048489;28;20133;-87
2022/11/11 02:15:01;;;;;;;3.15;1.10;;;16.40;75.50;;;;;;5046522;28;20479;-84
2022/11/11 02:18:05;;;;;;;2.78;1.40;;;16.50;75.80;;;;;;5048826;28;20118;-84
2022/11/11 02:21:13;;;;;;;3.03;0.93;;;16.50;75.80;;;;;;5048733;28;20557;-86
2022/11/11 02:24:19;;;;;;;3.58;1.40;;;16.40;75.60;;;;;;5044723;28;20069;-84
2022/11/11 02:27:25;;;;;;;3.05;0.82;;;16.40;75.60;;;;;;5053731;28;20048;-84
2022/11/11 02:30:28;;;;;;;2.70;1.05;;;16.50;75.80;;;;;;5055595;28;20312;-85
2022/11/11 02:33:32;;;;;;;1.95;0.88;;;16.40;75.60;;;;;;5057442;28;20071;-85
2022/11/11 02:36:37;;;;;;;3.45;1.20;;;16.40;75.60;;;;;;5052063;28;20051;-85
2022/11/11 02:39:46;;;;;;;2.95;0.90;;;16.50;75.80;;;;;;5061384;28;20067;-86
2022/11/11 02:42:50;;;;;;;3.63;1.30;;;16.50;75.80;;;;;;5068113;28;20043;-86
2022/11/11 02:45:54;;;;;;;3.83;1.10;;;16.50;75.80;;;;;;5058425;28;20060;-86
2022/11/11 02:48:57;;;;;;;2.13;1.75;;;16.40;75.50;;;;;;5037957;28;20618;-86
2022/11/11 02:52:00;;;;;;;3.17;1.33;;;16.40;75.60;;;;;;5052747;28;20039;-88
2022/11/11 02:55:04;;;;;;;4.32;1.40;;;16.40;75.60;;;;;;5051350;28;20711;-86
2022/11/11 02:58:09;;;;;;;1.77;1.25;;;16.40;75.60;;;;;;5051040;28;20062;-85
2022/11/11 03:01:12;;;;;;;5.38;1.80;;;16.40;75.60;;;;;;5050352;28;20095;-85
2022/11/11 03:04:15;;;;;;;4.80;1.35;;;16.40;75.60;;;;;;5040642;28;20068;-86
2022/11/11 03:07:18;;;;;;;4.82;1.77;;;16.40;75.70;;;;;;5030562;28;20619;-85
2022/11/11 03:10:22;;;;;;;1.73;1.42;;;16.40;75.60;;;;;;5029417;28;20101;-85
2022/11/11 03:13:25;;;;;;;4.10;1.85;;;16.40;75.70;;;;;;5033538;28;20444;-85
2022/11/11 03:19:50;;;;;;;2.30;1.17;;;16.40;75.70;;;;;;5050035;28;20040;-86
2022/11/11 03:23:04;;;;;;;3.83;1.10;;;16.40;75.70;;;;;;5050587;28;20060;-85
2022/11/11 03:26:07;;;;;;;5.03;1.77;;;16.40;75.70;;;;;;5050166;28;20125;-85
2022/11/11 03:29:11;;;;;;;;;;;16.40;75.70;;;;;;5050391;28;20037;-86
2022/11/11 03:32:14;;;;;;;2.40;1.27;;;16.40;75.70;;;;;;5049709;28;19919;-86
2022/11/11 03:35:17;;;;;;;3.13;1.00;;;16.40;75.70;;;;;;5051782;28;20086;-84
2022/11/11 03:38:23;;;;;;;3.90;1.40;;;16.40;75.70;;;;;;5046166;28;20032;-85
2022/11/11 03:41:26;;;;;;;2.35;1.30;;;16.40;75.70;;;;;;5031968;28;20084;-85
2022/11/11 03:44:29;;;;;;;6.57;1.83;;;16.40;75.70;;;;;;5032616;28;20075;-88
2022/11/11 03:47:33;;;;;;;;;;;16.40;75.70;;;;;;5057312;28;20218;-93
2022/11/11 03:50:37;;;;;;;4.75;1.35;;;16.40;75.70;;;;;;5058026;28;20001;-85
2022/11/11 03:53:40;;;;;;;2.13;1.33;;;16.40;75.70;;;;;;5057327;28;20053;-89
2022/11/11 03:56:43;;;;;;;2.33;1.10;;;16.40;75.70;;;;;;5054076;28;20719;-85
2022/11/11 03:59:46;;;;;;;4.72;1.25;;;16.40;75.70;;;;;;5051883;28;20051;-85
2022/11/11 04:16:20;;;;;;;4.63;1.60;;;16.40;75.70;;;;;;5056063;28;20039;-87
2022/11/11 04:22:47;;;;;;;3.05;1.50;;;16.40;75.70;;;;;;5040438;28;20124;-86
2022/11/11 04:25:52;;;;;;;3.53;1.20;;;16.40;75.70;;;;;;5040806;28;20044;-88
2022/11/11 04:32:35;;;;;;;2.47;1.30;;;16.40;75.60;;;;;;5051057;28;20036;-86
2022/11/11 04:35:38;;;;;;;2.55;1.08;;;16.40;75.60;;;;;;5030424;28;20133;-86
2022/11/11 04:42:04;;;;;;;3.22;1.00;;;16.40;75.60;;;;;;5050747;28;19924;-86
2022/11/11 04:45:27;;;;;;;;;;;16.50;75.70;;;;;;5051597;28;20055;-89
2022/11/11 04:48:30;;;;;;;4.35;0.90;;;16.50;75.70;;;;;;5055292;28;20023;-87
2022/11/11 04:58:22;;;;;;;3.17;0.88;;;16.40;76.10;;;;;;5050558;28;20159;-90
2022/11/11 05:04:47;;;;;;;2.58;0.90;;;16.50;75.80;;;;;;5034124;28;20508;-87
2022/11/11 05:11:14;;;;;;;3.03;1.58;;;16.40;75.50;;;;;;5049004;28;20507;-84
2022/11/11 05:21:20;;;;;;;3.40;0.93;;;16.40;75.50;;;;;;5017263;28;20572;-87
2022/11/11 05:27:45;;;;;;;5.65;1.98;;;16.40;75.40;;;;;;5037650;28;20523;-86
2022/11/11 05:30:48;;;;;;;3.70;1.50;;;16.40;75.40;;;;;;5032006;28;20064;-86
2022/11/11 05:33:51;;;;;;;2.08;1.08;;;16.40;75.40;;;;;;5031870;28;20044;-84
2022/11/11 05:36:54;;;;;;;2.38;1.02;;;16.40;75.40;;;;;;5031737;28;20040;-84
2022/11/11 05:39:58;;;;;;;2.42;0.85;;;16.40;75.40;;;;;;5036010;28;20036;-86
2022/11/11 05:43:01;;;;;;;3.35;1.35;;;16.40;75.40;;;;;;5039108;28;20140;-84
2022/11/11 05:46:04;;;;;;;;;;;16.40;75.30;;;;;;5032972;28;20103;-78
2022/11/11 05:49:16;;;;;;;3.15;1.30;;;16.40;75.30;;;;;;5044032;28;19931;-85
2022/11/11 05:52:20;;;;;;;2.33;1.02;;;16.40;75.30;;;;;;5045231;28;20500;-79
2022/11/11 05:55:23;;;;;;;5.68;1.77;;;16.30;75.10;;;;;;5059338;28;20055;-84
2022/11/11 05:58:26;;;;;;;4.35;1.30;;;16.30;75.10;;;;;;5057820;28;20113;-85
2022/11/11 06:01:30;;;;;;;2.97;0.90;;;16.40;75.30;;;;;;5062399;28;20472;-87
2022/11/11 06:04:34;;;;;;;3.63;1.27;;;16.30;75.10;;;;;;5062108;28;20515;-91
2022/11/11 06:07:39;;;;;;;5.30;2.08;;;16.30;75.10;;;;;;5063401;28;20043;-81
2022/11/11 06:10:42;;;;;;;4.10;1.92;;;16.30;75.10;;;;;;5047157;28;20044;-82
2022/11/11 06:13:45;;;;;;;2.90;1.15;;;16.40;75.30;;;;;;5047154;28;20079;-86
2022/11/11 06:16:49;;;;;;;;;;;16.40;75.20;;;;;;5049975;28;20510;-89
2022/11/11 06:19:52;;;;;;;3.80;1.13;;;16.40;75.20;;;;;;5056760;28;19915;-80
2022/11/11 06:22:56;;;;;;;3.53;1.73;;;16.40;75.20;;;;;;5058851;28;20063;-89
2022/11/11 06:26:11;;;;;;;3.10;1.25;;;16.40;75.10;;;;;;5058803;28;20423;-87
2022/11/11 06:29:14;;;;;;;3.65;1.20;;;16.40;75.10;;;;;;5050907;28;20566;-84
2022/11/11 06:32:17;;;;;;;3.67;1.10;;;16.40;75.10;;;;;;5054421;28;20040;-86
2022/11/11 06:35:21;;;;;;;;;;;16.40;75.10;;;;;;5054095;28;20059;-88
2022/11/11 06:38:24;;;;;;;4.32;1.88;;;16.40;75.10;;;;;;5042159;28;20419;-87
2022/11/11 06:41:27;;;;;;;7.70;1.75;;;16.40;75.20;;;;;;5046356;28;20083;-86
2022/11/11 06:44:30;;;;;;;5.18;2.25;;;16.40;75.60;;;;;;5049356;28;20091;-85
2022/11/11 06:47:34;;;;;;;3.53;1.60;;;16.50;76.20;;;;;;5035488;28;20114;-83
2022/11/11 06:50:37;;;;;;;3.92;1.55;;;16.60;76.60;;;;;;5046703;28;20102;-77
2022/11/11 06:53:41;;;;;;;7.03;3.45;;;16.60;76.90;;;;;;5046000;28;20392;-80
2022/11/11 06:56:47;;;;;;;4.63;1.80;;;16.60;77.20;;;;;;5045539;28;20241;-83
2022/11/11 06:59:50;;;;;;;5.53;2.08;;;16.60;77.60;;;;;;5037088;28;20043;-83
2022/11/11 07:02:56;;;;;;;6.28;2.25;;;16.70;78.00;;;;;;5041265;28;20137;-86
2022/11/11 07:06:00;;;;;;;6.68;2.30;;;16.70;78.40;;;;;;5051265;28;20506;-86
2022/11/11 07:09:03;;;;;;;3.53;1.55;;;16.70;78.60;;;;;;5040481;28;20314;-83
2022/11/11 07:12:07;;;;;;;3.10;1.85;;;16.70;78.80;;;;;;5025394;28;20039;-90
2022/11/11 07:15:10;;;;;;;6.57;2.13;;;16.70;79.00;;;;;;5033395;28;20171;-82
2022/11/11 07:18:14;;;;;;;4.68;1.85;;;16.70;79.10;;;;;;5040555;28;20095;-87
2022/11/11 07:21:17;;;;;;;4.10;1.60;;;16.70;79.30;;;;;;5043115;28;20039;-83
2022/11/11 07:24:20;;;;;;;5.97;1.77;;;16.80;79.50;;;;;;5053695;28;20574;-82
2022/11/11 07:27:24;;;;;;;5.40;1.65;;;16.70;79.40;;;;;;5034362;28;20049;-90
2022/11/11 07:30:26;;;;;;;3.88;2.03;;;16.80;79.60;;;;;;5044243;28;20060;-84
2022/11/11 07:33:30;;;;;;;;;;;16.80;79.60;;;;;;5034860;28;20058;-82
2022/11/11 07:36:34;;;;;;;3.30;1.85;;;16.80;79.60;;;;;;5045900;28;20117;-83
2022/11/11 07:39:37;;;;;;;;;;;16.70;79.30;;;;;;5039642;28;20084;-82
2022/11/11 07:42:41;;;;;;;4.72;2.35;;;16.80;79.40;;;;;;5043987;28;19928;-85
2022/11/11 07:45:45;;;;;;;1.95;1.60;;;16.80;79.30;;;;;;5040241;28;20419;-82
2022/11/11 07:48:48;;;;;;;4.75;1.88;;;16.80;79.30;;;;;;5045218;28;20094;-83
2022/11/11 07:51:51;;;;;;;2.03;1.42;;;16.80;79.30;;;;;;5043991;28;20527;-82
2022/11/11 07:54:54;;;;;;;4.40;2.10;;;16.80;79.30;;;;;;5045422;28;20087;-82
2022/11/11 07:57:58;;;;;;;3.35;1.83;;;16.80;79.30;;;;;;5036291;28;20114;-83
2022/11/11 08:01:02;;;;;;;3.03;1.77;;;16.90;79.40;;;;;;5034280;28;20062;-81
2022/11/11 08:04:05;;;;;;;4.97;1.70;;;16.90;79.40;;;;;;5034492;28;20063;-83
2022/11/11 08:07:08;;;;;;;3.20;1.75;;;16.90;79.40;;;;;;5044830;28;20110;-82
2022/11/11 08:10:12;;;;;;;;;;;16.90;79.30;;;;;;5043645;28;20047;-84
2022/11/11 08:16:37;;;;;;;3.30;1.60;;;16.90;79.10;;;;;;5042339;28;20112;-82
2022/11/11 08:19:41;;;;;;;;;;;16.90;79.10;;;;;;5044020;28;20098;-83
2022/11/11 08:22:44;;;;;;;3.75;1.80;;;16.90;79.10;;;;;;5042974;28;19974;-86
2022/11/11 08:25:48;;;;;;;3.70;1.88;;;16.90;79.00;;;;;;5044482;28;20040;-87
2022/11/11 08:28:52;;;;;;;3.67;1.30;;;16.90;79.00;;;;;;5033792;28;20130;-87
2022/11/11 08:31:56;;;;;;;3.72;1.50;;;16.90;79.00;;;;;;5033595;28;20082;-88
2022/11/11 08:34:59;;;;;;;4.78;1.50;;;16.90;79.00;;;;;;5030520;28;20256;-84
2022/11/11 08:38:03;;;;;;;3.72;1.75;;;16.90;78.90;;;;;;5037905;28;20055;-83
2022/11/11 08:41:06;;;;;;;6.55;1.50;;;16.90;78.90;;;;;;5045403;28;20060;-83
2022/11/11 08:44:10;;;;;;;3.35;1.30;;;16.90;78.90;;;;;;5060142;28;20067;-91
2022/11/11 08:47:13;;;;;;;4.70;1.65;;;16.90;78.80;;;;;;5054358;28;20051;-82
2022/11/11 08:50:17;;;;;;;3.45;1.50;;;16.90;78.80;;;;;;5053031;28;20048;-79
2022/11/11 08:53:21;;;;;;;4.80;1.70;;;16.90;78.70;;;;;;5059195;28;20132;-81
2022/11/11 08:56:24;;;;;;;33.78;8.95;;;16.90;78.60;;;;;;5058575;28;20131;-81
2022/11/11 08:59:27;;;;;;;50.60;12.05;;;16.90;78.50;;;;;;5054904;28;20155;-81
2022/11/11 09:02:30;;;;;;;37.88;8.60;;;17.00;78.70;;;;;;5036733;28;20203;-81
2022/11/11 09:05:34;;;;;;;33.88;8.10;;;17.00;78.70;;;;;;5037082;28;20048;-84
2022/11/11 09:08:37;;;;;;;18.25;7.38;;;17.00;78.60;;;;;;5048383;28;20411;-83
2022/11/11 09:11:40;;;;;;;26.98;7.28;;;17.00;78.60;;;;;;5046721;28;20467;-83
2022/11/11 09:14:43;;;;;;;26.27;7.03;;;17.10;78.80;;;;;;5047487;28;20047;-84
2022/11/11 09:17:46;;;;;;;18.67;6.10;;;17.10;78.70;;;;;;5047249;28;20091;-81
2022/11/11 09:20:49;;;;;;;;;;;17.10;78.60;;;;;;5049124;28;20032;-89
2022/11/11 09:23:53;;;;;;;15.57;4.63;;;17.20;78.70;;;;;;5039604;28;19923;-82
2022/11/11 09:26:56;;;;;;;17.98;4.53;;;17.10;79.00;;;;;;5037571;28;20423;-81
2022/11/11 09:29:59;;;;;;;18.45;5.07;;;17.20;78.70;;;;;;5046304;28;20400;-80
2022/11/11 09:33:03;;;;;;;15.27;5.38;;;17.20;78.60;;;;;;5047871;28;20412;-80
2022/11/11 09:36:06;;;;;;;16.23;4.85;;;17.20;78.60;;;;;;5043232;28;20521;-81
2022/11/11 09:39:10;;;;;;;12.85;4.35;;;17.20;78.60;;;;;;5036690;28;20403;-81
2022/11/11 09:42:38;;;;;;;12.68;4.78;;;17.20;78.50;;;;;;5042150;28;20133;-81
2022/11/11 09:45:58;;;;;;;10.27;4.00;;;17.30;79.20;;;;;;5046984;28;20044;-80
2022/11/11 09:49:10;;;;;;;10.00;3.92;;;17.30;78.60;;;;;;5046826;28;20459;-81
2022/11/11 09:52:25;;;;;;;11.00;3.30;;;17.30;78.60;;;;;;5046568;28;20036;-81
2022/11/11 09:56:06;;;;;;;11.75;4.05;;;17.30;78.50;;;;;;5046492;28;20055;-81
2022/11/11 09:59:22;;;;;;;8.38;3.60;;;17.40;78.60;;;;;;5038430;28;20075;-81
2022/11/11 10:02:47;;;;;;;10.13;3.83;;;17.50;78.50;;;;;;5036704;28;20519;-81
2022/11/11 10:06:07;;;;;;;7.75;3.40;;;17.60;78.50;;;;;;5046129;28;20120;-85
2022/11/11 10:09:26;;;;;;;8.80;3.00;;;17.60;78.30;;;;;;5032368;28;20083;-83
2022/11/11 10:12:38;;;;;;;9.20;3.15;;;17.70;78.30;;;;;;5038949;28;20040;-83
2022/11/11 10:15:57;;;;;;;7.45;3.38;;;17.90;78.40;;;;;;5040834;28;20036;-84
2022/11/11 10:19:31;;;;;;;9.43;2.88;;;17.90;78.20;;;;;;5050867;28;20040;-86
2022/11/11 10:22:37;;;;;;;8.63;3.70;;;18.00;78.10;;;;;;5041951;28;20077;-84
2022/11/11 10:25:52;;;;;;;5.82;2.60;;;18.10;78.00;;;;;;5046950;28;20040;-82
2022/11/11 10:28:57;;;;;;;6.65;3.05;;;18.20;78.00;;;;;;5045499;28;20035;-84
2022/11/11 10:32:08;;;;;;;10.77;3.22;;;18.30;78.10;;;;;;5038998;28;20511;-83
2022/11/11 10:35:18;;;;;;;7.97;2.58;;;18.30;77.80;;;;;;5039727;28;20052;-84
2022/11/11 10:38:49;;;;;;;9.50;2.83;;;18.40;77.80;;;;;;5034442;28;20037;-84
2022/11/11 10:41:53;;;;;;;5.88;2.85;;;18.50;77.80;;;;;;5041391;28;20415;-86
2022/11/11 10:45:01;;;;;;;6.40;2.15;;;18.60;77.70;;;;;;5047204;28;20093;-84
2022/11/11 10:48:11;;;;;;;10.40;3.03;;;18.70;77.70;;;;;;5042131;28;20103;-83
2022/11/11 10:51:16;;;;;;;5.13;2.72;;;18.80;77.60;;;;;;5031666;28;20891;-84
2022/11/11 10:54:32;;;;;;;5.13;2.28;;;18.90;77.60;;;;;;5045833;28;20036;-84
2022/11/11 10:57:56;;;;;;;7.60;2.83;;;18.90;77.30;;;;;;5038414;28;20048;-87
2022/11/11 11:01:03;;;;;;;4.78;2.13;;;19.00;77.20;;;;;;5045856;28;20051;-85
2022/11/11 11:04:34;;;;;;;6.50;2.30;;;19.10;77.30;;;;;;5029155;28;20450;-84
2022/11/11 11:07:45;;;;;;;7.20;2.25;;;19.10;77.10;;;;;;5047786;28;20141;-83
2022/11/11 11:11:01;;;;;;;4.65;1.77;;;19.20;77.00;;;;;;5040205;28;20044;-82
2022/11/11 11:14:27;;;;;;;8.77;2.45;;;19.30;76.90;;;;;;5038151;28;20091;-83
2022/11/11 11:17:41;;;;;;;9.45;2.75;;;19.40;76.80;;;;;;5042527;28;20275;-93
2022/11/11 11:20:57;;;;;;;6.70;2.85;;;19.40;76.70;;;;;;5039518;28;20136;-82
2022/11/11 11:24:00;;;;;;;5.78;2.63;;;19.50;76.70;;;;;;5037965;28;20055;-82
2022/11/11 11:27:06;;;;;;;7.10;2.47;;;19.50;76.60;;;;;;5045881;28;20377;-82
2022/11/11 11:30:11;;;;;;;4.10;1.95;;;19.60;76.60;;;;;;5044174;28;20039;-83
2022/11/11 11:33:15;;;;;;;6.90;2.42;;;19.60;76.40;;;;;;5034112;28;20447;-81
2022/11/11 11:36:18;;;;;;;;;;;19.60;76.20;;;;;;5045902;28;20063;-83
2022/11/11 11:39:32;;;;;;;7.27;2.97;;;19.60;76.20;;;;;;5036887;28;19919;-81
2022/11/11 11:42:38;;;;;;;6.25;2.63;;;19.60;76.20;;;;;;5043461;28;20063;-84
2022/11/11 11:45:41;;;;;;;7.70;2.53;;;19.60;76.20;;;;;;5047564;28;20063;-86
2022/11/11 11:49:04;;;;;;;7.13;2.72;;;19.70;76.10;;;;;;5048280;28;20107;-87
2022/11/11 11:52:25;;;;;;;3.30;2.15;;;19.80;76.10;;;;;;5045196;28;20157;-86
2022/11/11 11:55:35;;;;;;;8.63;3.30;;;19.80;75.80;;;;;;5043935;28;20120;-84
2022/11/11 11:58:59;;;;;;;5.22;2.00;;;19.90;75.70;;;;;;5042777;28;20449;-84
2022/11/11 12:02:45;;;;;;;8.60;3.35;;;20.00;75.60;;;;;;5044498;28;20080;-84
2022/11/11 12:06:01;;;;;;;6.90;2.03;;;20.00;75.20;;;;;;5037117;28;20554;-86
2022/11/11 12:09:29;;;;;;;4.78;1.80;;;20.20;75.40;;;;;;5037677;28;20380;-91
2022/11/11 12:12:47;;;;;;;9.65;2.72;;;20.20;75.10;;;;;;5043424;28;20063;-86
2022/11/11 12:16:03;;;;;;;4.68;2.00;;;20.30;75.10;;;;;;5039337;28;20072;-85
2022/11/11 12:19:06;;;;;;;4.53;1.70;;;20.30;74.80;;;;;;5043268;28;20098;-87
2022/11/11 12:22:22;;;;;;;6.82;2.10;;;20.30;74.80;;;;;;5036047;28;20575;-88
2022/11/11 12:26:18;;;;;;;4.15;1.52;;;20.30;74.60;;;;;;5043589;28;20851;-86
2022/11/11 12:29:28;;;;;;;7.05;3.00;;;20.30;74.30;;;;;;5044057;28;20083;-88
2022/11/11 12:32:36;;;;;;;5.18;2.05;;;20.40;74.60;;;;;;5043866;28;20048;-87
2022/11/11 12:36:09;;;;;;;5.53;1.58;;;20.40;74.50;;;;;;5044517;28;20164;-85
2022/11/11 12:39:41;;;;;;;4.07;1.45;;;20.40;74.10;;;;;;5042035;28;20097;-84
2022/11/11 12:43:07;;;;;;;4.75;1.73;;;20.40;73.90;;;;;;5043569;28;20119;-89
2022/11/11 12:46:33;;;;;;;3.67;1.60;;;20.40;73.90;;;;;;5033171;28;20606;-91
2022/11/11 12:49:56;;;;;;;4.53;1.92;;;20.40;73.90;;;;;;5044800;28;20463;-86
2022/11/11 12:53:18;;;;;;;3.30;1.87;;;20.40;73.80;;;;;;5043810;28;20044;-80
2022/11/11 12:56:31;;;;;;;3.78;2.03;;;20.50;73.80;;;;;;5038281;28;20465;-87
2022/11/11 13:00:23;;;;;;;4.67;1.50;;;20.50;73.70;;;;;;5040958;28;20043;-96
2022/11/11 13:03:34;;;;;;;4.63;1.70;;;20.60;73.60;;;;;;5052037;28;20104;-93
2022/11/11 13:06:47;;;;;;;5.30;1.45;;;20.60;73.70;;;;;;5049230;28;20187;-87
2022/11/11 13:10:24;;;;;;;4.38;1.60;;;20.60;73.40;;;;;;5038649;28;20177;-83
2022/11/11 13:13:34;;;;;;;3.95;1.92;;;20.60;73.40;;;;;;5030933;28;20564;-87
2022/11/11 13:16:38;;;;;;;5.95;1.17;;;20.60;73.40;;;;;;5030081;28;20056;-91
2022/11/11 13:19:54;;;;;;;3.55;1.58;;;20.60;73.40;;;;;;5049784;28;20043;-89
2022/11/11 13:22:58;;;;;;;3.88;1.50;;;20.60;73.30;;;;;;5045042;28;20132;-88
2022/11/11 13:26:11;;;;;;;3.45;1.60;;;20.60;73.30;;;;;;5042280;28;20147;-88
2022/11/11 13:29:31;;;;;;;3.28;1.45;;;20.60;73.10;;;;;;5041922;28;20047;-88
2022/11/11 13:32:54;;;;;;;5.18;2.28;;;20.50;72.90;;;;;;5042973;28;20095;-91
2022/11/11 13:36:00;;;;;;;5.05;1.75;;;20.50;72.70;;;;;;5043721;28;20439;-89
2022/11/11 13:39:04;;;;;;;3.15;1.55;;;20.50;72.90;;;;;;5041553;28;20114;-89
2022/11/11 13:42:12;;;;;;;4.30;1.40;;;20.50;73.40;;;;;;5040122;28;20348;-89
2022/11/11 13:45:32;;;;;;;2.33;1.30;;;20.50;72.80;;;;;;5042845;28;20061;-95
2022/11/11 13:48:47;;;;;;;4.72;1.65;;;20.40;72.50;;;;;;5045038;28;20059;-94
2022/11/11 13:52:22;;;;;;;2.80;1.45;;;20.40;72.60;;;;;;5047571;28;20047;-94
2022/11/11 13:55:40;;;;;;;2.20;1.33;;;20.30;72.30;;;;;;5052602;28;20352;-94
2022/11/11 13:58:47;;;;;;;4.15;1.63;;;20.30;72.40;;;;;;5058908;28;20052;-94
2022/11/11 14:02:12;;;;;;;4.88;2.17;;;20.20;72.40;;;;;;5057143;28;20044;-88
2022/11/11 14:05:18;;;;;;;3.97;2.00;;;20.20;72.30;;;;;;5034432;28;20047;-83
2022/11/11 14:08:44;;;;;;;5.90;2.03;;;20.00;72.20;;;;;;5041835;28;20068;-84
2022/11/11 14:11:47;;;;;;;1.98;1.33;;;20.00;72.30;;;;;;5032649;28;20210;-86
2022/11/11 14:14:56;;;;;;;2.97;1.30;;;19.90;72.40;;;;;;5046610;28;20083;-89
2022/11/11 14:17:59;;;;;;;3.85;1.40;;;19.80;72.30;;;;;;5047243;28;20087;-91
2022/11/11 14:21:03;;;;;;;4.47;1.60;;;19.80;72.50;;;;;;5045101;28;20112;-93
2022/11/11 14:24:06;;;;;;;;;;;19.70;72.40;;;;;;5050782;28;20590;-93
2022/11/11 14:27:10;;;;;;;3.37;1.40;;;19.60;72.40;;;;;;5037956;28;19919;-88
2022/11/11 14:30:35;;;;;;;4.45;1.65;;;19.60;72.60;;;;;;5043526;28;20098;-87
2022/11/11 14:33:48;;;;;;;2.83;1.25;;;19.50;72.40;;;;;;5038351;28;20044;-87
2022/11/11 14:37:24;;;;;;;4.15;1.52;;;19.40;72.40;;;;;;5039332;28;20036;-87
2022/11/11 14:40:30;;;;;;;2.83;1.40;;;19.40;72.40;;;;;;5029382;28;20107;-87
2022/11/11 14:43:36;;;;;;;5.50;1.88;;;19.30;72.40;;;;;;5041361;28;20231;-90
2022/11/11 14:47:04;;;;;;;4.93;2.15;;;19.20;72.30;;;;;;5054625;28;20052;-87
2022/11/11 14:50:26;;;;;;;5.68;1.35;;;19.20;72.30;;;;;;5066339;28;20103;-85
2022/11/11 14:53:37;;;;;;;3.08;1.58;;;19.10;72.30;;;;;;5059071;28;20067;-85
2022/11/11 14:56:41;;;;;;;6.60;1.92;;;19.00;72.30;;;;;;5060857;28;20068;-83
2022/11/11 14:59:46;;;;;;;5.50;1.77;;;19.00;72.40;;;;;;5047186;28;20048;-83
2022/11/11 15:02:57;;;;;;;5.97;2.30;;;18.90;72.20;;;;;;5046995;28;20044;-82
2022/11/11 15:06:10;;;;;;;5.03;1.60;;;18.90;72.50;;;;;;5048046;28;20036;-82
2022/11/11 15:09:31;;;;;;;5.30;1.80;;;18.90;72.60;;;;;;5037466;28;20533;-79
2022/11/11 15:12:44;;;;;;;5.82;2.00;;;18.80;72.50;;;;;;5047386;28;20515;-79
2022/11/11 15:16:01;;;;;;;7.68;2.40;;;18.80;72.50;;;;;;5048410;28;20333;-86
2022/11/11 15:19:49;;;;;;;6.47;2.28;;;18.80;72.60;;;;;;5039339;28;20055;-86
2022/11/11 15:23:23;;;;;;;5.43;2.10;;;18.80;72.50;;;;;;5045281;28;20679;-84
2022/11/11 15:26:56;;;;;;;5.40;2.05;;;18.80;72.50;;;;;;5042031;28;20613;-85
2022/11/11 15:30:17;;;;;;;3.80;1.50;;;18.80;72.50;;;;;;5038548;28;20064;-83
2022/11/11 15:33:40;;;;;;;6.32;2.42;;;18.80;72.50;;;;;;5040269;28;20032;-83
2022/11/11 15:36:53;;;;;;;4.93;2.05;;;18.80;72.50;;;;;;5036881;28;20048;-91
2022/11/11 15:39:57;;;;;;;5.32;2.88;;;18.70;72.40;;;;;;5037276;28;20056;-87
2022/11/11 15:43:02;;;;;;;6.40;2.20;;;18.60;72.30;;;;;;5037080;28;20056;-92
2022/11/11 15:46:06;;;;;;;5.18;2.13;;;18.50;72.30;;;;;;5033409;28;20048;-90
2022/11/11 15:49:34;;;;;;;4.43;2.65;;;18.50;72.40;;;;;;5044225;28;20051;-91
2022/11/11 15:52:37;;;;;;;3.22;1.85;;;18.50;72.50;;;;;;5036437;28;20075;-91
2022/11/11 15:55:40;;;;;;;;;;;18.40;72.40;;;;;;5033239;28;20043;-90
2022/11/11 15:58:44;;;;;;;3.28;1.83;;;18.40;72.50;;;;;;5042910;28;19918;-85
2022/11/11 16:01:47;;;;;;;6.15;2.53;;;18.30;72.40;;;;;;5045210;28;20111;-94
2022/11/11 16:04:57;;;;;;;4.88;2.40;;;18.20;72.30;;;;;;5046017;28;20482;-87
2022/11/11 16:08:06;;;;;;;3.45;1.83;;;18.20;72.40;;;;;;5042071;28;20051;-86
2022/11/11 16:11:12;;;;;;;6.97;2.33;;;18.10;72.40;;;;;;5038787;28;20048;-85
2022/11/11 16:14:39;;;;;;;5.55;2.38;;;18.10;72.50;;;;;;5044562;28;20075;-87
2022/11/11 16:17:43;;;;;;;5.82;1.95;;;18.00;72.50;;;;;;5045146;28;20075;-86
2022/11/11 16:21:00;;;;;;;4.88;2.78;;;17.90;72.50;;;;;;5043754;28;20403;-85
2022/11/11 16:24:22;;;;;;;5.30;1.67;;;17.90;72.70;;;;;;5043197;28;20483;-84
2022/11/11 16:27:28;;;;;;;6.93;2.13;;;17.80;72.60;;;;;;5040622;28;20039;-87
2022/11/11 16:30:36;;;;;;;3.78;1.95;;;17.70;72.60;;;;;;5045542;28;20778;-85
2022/11/11 16:33:40;;;;;;;5.15;1.98;;;17.70;72.70;;;;;;5044116;28;20098;-85
2022/11/11 16:37:07;;;;;;;5.20;1.80;;;17.60;72.70;;;;;;5034842;28;20087;-84
2022/11/11 16:40:31;;;;;;;5.10;1.70;;;17.60;72.90;;;;;;5042756;28;20594;-85
2022/11/11 16:43:44;;;;;;;7.10;2.40;;;17.50;72.90;;;;;;5042520;28;20115;-84
2022/11/11 16:46:47;;;;;;;5.00;2.08;;;17.40;72.80;;;;;;5036876;28;20132;-83
2022/11/11 16:50:06;;;;;;;5.75;1.90;;;17.30;72.80;;;;;;5037435;28;20067;-82
2022/11/11 16:53:25;;;;;;;4.97;2.03;;;17.30;73.00;;;;;;5042184;28;20086;-83
2022/11/11 16:56:30;;;;;;;5.60;2.30;;;17.20;72.90;;;;;;5038805;28;20059;-84
2022/11/11 16:59:48;;;;;;;5.65;2.28;;;17.10;72.80;;;;;;5041716;28;20381;-84
2022/11/11 17:03:15;;;;;;;3.65;2.13;;;17.10;73.00;;;;;;5043017;28;20070;-85
2022/11/11 17:06:18;;;;;;;5.68;2.20;;;17.00;73.00;;;;;;5042875;28;20491;-86
2022/11/11 17:09:27;;;;;;;;;;;17.00;73.10;;;;;;5043313;28;20075;-86
2022/11/11 17:12:31;;;;;;;8.35;2.47;;;17.00;73.10;;;;;;5043054;28;19958;-84
2022/11/11 17:15:34;;;;;;;4.40;1.92;;;16.90;73.00;;;;;;5043804;28;20169;-84
2022/11/11 17:18:38;;;;;;;;;;;16.90;73.10;;;;;;5034608;28;20096;-83
2022/11/11 17:21:42;;;;;;;4.93;2.70;;;16.90;73.20;;;;;;5030984;28;19943;-85
2022/11/11 17:24:45;;;;;;;7.15;2.10;;;16.80;72.90;;;;;;5046195;28;20407;-83
2022/11/11 17:27:49;;;;;;;7.22;2.28;;;16.80;73.00;;;;;;5038837;28;20166;-87
2022/11/11 17:30:52;;;;;;;5.57;2.10;;;16.80;73.20;;;;;;5047306;28;20044;-86
2022/11/11 17:33:55;;;;;;;4.80;3.10;;;16.70;73.10;;;;;;5048323;28;20491;-84
2022/11/11 17:36:57;;;;;;;4.85;2.40;;;16.70;73.20;;;;;;5046945;28;20040;-84
2022/11/11 17:40:01;;;;;;;7.38;2.60;;;16.60;73.20;;;;;;5045934;28;20499;-83
2022/11/11 17:43:04;;;;;;;7.63;3.80;;;16.60;73.30;;;;;;5035616;28;20531;-84
2022/11/11 17:46:07;;;;;;;4.82;2.05;;;16.60;73.40;;;;;;5036095;28;20182;-84
2022/11/11 17:49:11;;;;;;;6.05;2.20;;;16.50;73.60;;;;;;5042639;28;20455;-89
2022/11/11 17:52:15;;;;;;;14.73;3.20;;;16.50;73.70;;;;;;5046221;28;20112;-90